Kargopol, Russia
Current Conditions -  °F | °C
As of 8:30 PM on Monday 24 Nov 2014 (Local Time) from ULWC Reporting Station
Overcast Overcast  
Wind Chill: 20°   Ceiling: 800
Heat Index: 28°   Visibility: 5mi
Dew Point: 25°   Wind: 9mph
Humidity: 86%   Direction: 240°WSW
Pressure: 30.56"   Gusts: NA
Location:  61.5°N, 38.97°E
Report Text: ULWC 241730Z 24004MPS 8000 OVC008 M02/M04 Q1035 NOSIG RMKQBB250 QFE766/1022 SC057
Loading
Personal Weather Stations






























Interactive Weather Map New forecast layout! Learn more

10-Day Weather Forecast

Advertisements
Track Severe Weather on mobile